Time;durP1;ratioP1;P1;durP2;ratioP2;P2;SDS_P1;SDS_P2;PMS_P1;PMS_P2;Temp;Humidity;BMP_temperature;BMP_pressure;BME280_temperature;BME280_humidity;BME280_pressure;Samples;Min_cycle;Max_cycle;Signal;HPM_P1;HPM_P2
2022/06/09 00:00:16;;;;;;;1.50;0.70;;;14.40;88.90;;;;;;4866412;29;20131;-75
2022/06/09 00:02:47;;;;;;;1.33;0.68;;;14.50;89.00;;;;;;4895673;29;20051;-75
2022/06/09 00:05:13;;;;;;;0.82;0.60;;;14.40;89.00;;;;;;4895921;29;20063;-74
2022/06/09 00:07:40;;;;;;;2.50;0.93;;;14.40;89.00;;;;;;4895548;29;20096;-75
2022/06/09 00:10:12;;;;;;;1.05;0.70;;;14.40;89.00;;;;;;4898055;29;20053;-76
2022/06/09 00:12:38;;;;;;;1.00;0.70;;;14.40;89.10;;;;;;4917626;29;20039;-75
2022/06/09 00:15:08;;;;;;;1.20;0.77;;;14.30;89.00;;;;;;4933674;29;20043;-75
2022/06/09 00:17:34;;;;;;;0.90;0.73;;;14.40;89.10;;;;;;4955912;28;20038;-76
2022/06/09 00:20:00;;;;;;;1.50;0.80;;;14.40;89.10;;;;;;5013050;28;20050;-76
2022/06/09 00:22:26;;;;;;;1.35;0.60;;;14.50;89.10;;;;;;5012314;28;20030;-75
2022/06/09 00:24:52;;;;;;;2.17;1.05;;;14.40;89.10;;;;;;4993810;28;20375;-75
2022/06/09 00:27:17;;;;;;;1.50;0.52;;;14.40;89.00;;;;;;5013087;28;20053;-75
2022/06/09 00:29:43;;;;;;;0.80;0.65;;;14.40;89.00;;;;;;5012884;28;20096;-74
2022/06/09 00:32:09;;;;;;;1.17;0.50;;;14.50;89.70;;;;;;5013303;28;20042;-75
2022/06/09 00:34:35;;;;;;;0.73;0.60;;;14.50;89.10;;;;;;4994871;28;20042;-75
2022/06/09 00:37:01;;;;;;;0.47;0.47;;;14.50;89.10;;;;;;4995277;28;20054;-75
2022/06/09 00:39:26;;;;;;;0.50;0.50;;;14.40;89.00;;;;;;5012660;28;20375;-74
2022/06/09 00:41:52;;;;;;;0.80;0.73;;;14.40;89.00;;;;;;5012814;28;20030;-75
2022/06/09 00:44:21;;;;;;;1.27;0.60;;;14.40;89.00;;;;;;5012826;28;20486;-75
2022/06/09 00:46:54;;;;;;;1.20;0.63;;;14.40;89.10;;;;;;4995560;28;20442;-74
2022/06/09 00:49:31;;;;;;;0.68;0.60;;;14.50;89.10;;;;;;5012439;28;20125;-76
2022/06/09 00:52:00;;;;;;;1.08;0.68;;;14.50;89.10;;;;;;5012833;28;20042;-75
2022/06/09 00:54:42;;;;;;;1.63;0.80;;;14.40;89.60;;;;;;4993679;28;20040;-76
2022/06/09 00:57:17;;;;;;;0.40;0.40;;;14.50;89.10;;;;;;4995008;28;20034;-75
2022/06/09 00:59:45;;;;;;;0.75;0.50;;;14.50;89.70;;;;;;4993502;28;20038;-75
2022/06/09 01:02:15;;;;;;;0.50;0.45;;;14.50;89.10;;;;;;5012599;28;20089;-74
2022/06/09 01:04:41;;;;;;;1.13;0.45;;;14.40;89.10;;;;;;5012399;28;20034;-76
2022/06/09 01:07:12;;;;;;;0.30;0.30;;;14.50;89.20;;;;;;5012314;28;20046;-76
2022/06/09 01:09:39;;;;;;;0.68;0.43;;;14.40;89.20;;;;;;5012133;28;20037;-75
2022/06/09 01:12:23;;;;;;;0.70;0.50;;;14.40;89.20;;;;;;4994136;28;20050;-75
2022/06/09 01:14:49;;;;;;;1.88;0.50;;;14.40;89.20;;;;;;4994982;28;20402;-75
2022/06/09 01:17:25;;;;;;;1.55;0.80;;;14.40;89.20;;;;;;4978614;28;20501;-75
2022/06/09 01:20:08;;;;;;;0.75;0.40;;;14.40;89.30;;;;;;5012057;28;20188;-75
2022/06/09 01:23:05;;;;;;;0.98;0.43;;;14.40;89.40;;;;;;4993717;28;20042;-75
2022/06/09 01:26:11;;;;;;;0.43;0.43;;;14.30;89.40;;;;;;5012410;28;20505;-76
2022/06/09 01:29:09;;;;;;;0.30;0.30;;;14.30;89.40;;;;;;4985966;28;20490;-76
2022/06/09 01:31:46;;;;;;;0.30;0.30;;;14.30;89.50;;;;;;4998236;28;20038;-75
2022/06/09 01:34:33;;;;;;;1.10;0.60;;;14.30;89.50;;;;;;5011337;28;20050;-75
2022/06/09 01:37:07;;;;;;;0.95;0.40;;;14.20;89.50;;;;;;5012182;28;20523;-75
2022/06/09 01:39:47;;;;;;;0.82;0.35;;;14.20;90.00;;;;;;4994846;28;20037;-75
2022/06/09 01:42:23;;;;;;;0.95;0.45;;;14.20;89.50;;;;;;5011877;28;20045;-75
2022/06/09 01:44:51;;;;;;;0.98;0.50;;;14.20;89.60;;;;;;5011646;28;20041;-75
2022/06/09 01:47:20;;;;;;;1.38;0.50;;;14.20;89.60;;;;;;5011591;28;20121;-76
2022/06/09 01:49:49;;;;;;;0.70;0.30;;;14.30;90.10;;;;;;4994545;28;20052;-76
2022/06/09 01:52:15;;;;;;;1.02;0.50;;;14.20;89.60;;;;;;5011712;28;20048;-75
2022/06/09 01:54:41;;;;;;;0.50;0.50;;;14.10;89.60;;;;;;4977631;28;20050;-75
2022/06/09 01:57:17;;;;;;;1.40;0.60;;;14.10;90.10;;;;;;4977741;28;20038;-75
2022/06/09 01:59:50;;;;;;;1.17;0.50;;;14.10;89.70;;;;;;4978849;28;20044;-75
2022/06/09 02:02:21;;;;;;;0.70;0.50;;;14.00;89.70;;;;;;5011577;28;20042;-75
2022/06/09 02:04:55;;;;;;;0.50;0.50;;;14.10;89.80;;;;;;4992996;28;20050;-75
2022/06/09 02:07:21;;;;;;;0.77;0.28;;;14.00;89.70;;;;;;4994157;28;20466;-75
2022/06/09 02:09:47;;;;;;;0.65;0.50;;;14.00;89.70;;;;;;5012077;28;20433;-75
2022/06/09 02:12:16;;;;;;;0.77;0.40;;;14.10;89.80;;;;;;4976979;28;20058;-75
2022/06/09 02:14:54;;;;;;;0.65;0.30;;;14.00;89.80;;;;;;4994094;28;20359;-76
2022/06/09 02:17:20;;;;;;;0.52;0.40;;;14.00;89.90;;;;;;4992471;28;20454;-76
2022/06/09 02:19:48;;;;;;;0.30;0.30;;;14.00;89.90;;;;;;4993762;28;20050;-75
2022/06/09 02:22:15;;;;;;;0.75;0.45;;;14.00;89.90;;;;;;5011787;28;20577;-75
2022/06/09 02:24:41;;;;;;;0.47;0.38;;;14.00;90.00;;;;;;4993825;28;20394;-75
2022/06/09 02:27:07;;;;;;;1.10;0.50;;;13.90;89.90;;;;;;5011731;28;20037;-75
2022/06/09 02:29:33;;;;;;;0.68;0.43;;;13.90;89.90;;;;;;5011443;28;20572;-75
2022/06/09 02:31:59;;;;;;;0.90;0.57;;;13.90;90.00;;;;;;5011127;28;20049;-75
2022/06/09 02:34:26;;;;;;;0.65;0.40;;;13.90;90.00;;;;;;4993535;28;20042;-75
2022/06/09 02:36:52;;;;;;;0.82;0.40;;;13.90;90.00;;;;;;4992250;28;20125;-75
2022/06/09 02:39:18;;;;;;;0.65;0.40;;;13.80;90.00;;;;;;5011194;28;20124;-75
2022/06/09 02:41:44;;;;;;;0.52;0.30;;;13.80;90.00;;;;;;5011285;28;20068;-75
2022/06/09 02:44:09;;;;;;;0.20;0.20;;;13.80;90.00;;;;;;5011181;28;20501;-75
2022/06/09 02:46:35;;;;;;;0.90;0.30;;;13.80;90.00;;;;;;5014573;28;20449;-75
2022/06/09 02:49:01;;;;;;;0.43;0.35;;;13.80;90.00;;;;;;5014339;28;20390;-76
2022/06/09 02:51:30;;;;;;;0.80;0.45;;;13.80;90.20;;;;;;5014287;28;20049;-76
2022/06/09 02:53:59;;;;;;;0.20;0.20;;;13.70;90.00;;;;;;5014371;28;20038;-75
2022/06/09 02:56:25;;;;;;;0.28;0.20;;;13.70;90.00;;;;;;4997740;28;20100;-76
2022/06/09 02:58:52;;;;;;;1.27;0.30;;;13.60;90.00;;;;;;5014124;28;20371;-75
2022/06/09 03:01:19;;;;;;;0.82;0.50;;;13.60;90.00;;;;;;5014109;28;20084;-76
2022/06/09 03:03:45;;;;;;;0.47;0.30;;;13.60;90.10;;;;;;4996821;28;20049;-75
2022/06/09 03:06:11;;;;;;;0.73;0.57;;;13.60;90.00;;;;;;5014194;28;20394;-76
2022/06/09 03:08:37;;;;;;;2.55;0.75;;;13.60;90.00;;;;;;4980120;28;20050;-75
2022/06/09 03:11:03;;;;;;;0.60;0.30;;;13.60;90.00;;;;;;5014310;28;20042;-75
2022/06/09 03:13:28;;;;;;;0.77;0.47;;;13.60;90.10;;;;;;4995715;28;20043;-75
2022/06/09 03:15:54;;;;;;;1.08;0.30;;;13.50;90.00;;;;;;4996581;28;20038;-75
2022/06/09 03:18:21;;;;;;;2.85;0.52;;;13.60;90.00;;;;;;5014456;28;20053;-75
2022/06/09 03:20:48;;;;;;;1.45;0.50;;;13.50;90.00;;;;;;5013721;28;20062;-75
2022/06/09 03:23:14;;;;;;;0.98;0.40;;;13.50;90.00;;;;;;4996622;28;20038;-75
2022/06/09 03:25:42;;;;;;;1.23;0.60;;;13.50;90.00;;;;;;5013625;28;20037;-75
2022/06/09 03:28:08;;;;;;;0.75;0.52;;;13.50;90.00;;;;;;4996122;28;20042;-75
2022/06/09 03:30:34;;;;;;;0.57;0.50;;;13.50;90.00;;;;;;5013789;28;20049;-75
2022/06/09 03:33:00;;;;;;;1.52;0.60;;;13.50;90.00;;;;;;4996214;28;20048;-75
2022/06/09 03:35:25;;;;;;;0.85;0.40;;;13.50;90.00;;;;;;5013883;28;20382;-75
2022/06/09 03:37:52;;;;;;;0.57;0.50;;;13.50;90.00;;;;;;5014043;28;20050;-75
2022/06/09 03:40:20;;;;;;;0.32;0.32;;;13.60;90.00;;;;;;5013601;28;20040;-75
2022/06/09 03:42:46;;;;;;;1.45;0.50;;;13.50;90.00;;;;;;4995046;28;20145;-75
2022/06/09 03:45:12;;;;;;;1.27;0.50;;;13.50;90.00;;;;;;4995913;28;20564;-75
2022/06/09 03:47:39;;;;;;;0.85;0.47;;;13.50;90.00;;;;;;4979744;28;20042;-75
2022/06/09 03:50:08;;;;;;;0.45;0.43;;;13.50;90.00;;;;;;4996071;28;20129;-75
2022/06/09 03:52:34;;;;;;;0.30;0.30;;;13.50;90.00;;;;;;5013525;28;20085;-76
2022/06/09 03:55:00;;;;;;;0.73;0.50;;;13.60;90.00;;;;;;5014089;28;20038;-75
2022/06/09 03:57:26;;;;;;;0.43;0.40;;;13.70;90.00;;;;;;4995282;28;20069;-75
2022/06/09 03:59:52;;;;;;;0.40;0.30;;;13.60;90.00;;;;;;4979483;28;20049;-75
2022/06/09 04:02:18;;;;;;;1.45;0.50;;;13.70;90.00;;;;;;5013574;28;20042;-75
2022/06/09 04:04:43;;;;;;;0.50;0.40;;;13.60;89.90;;;;;;4994535;28;20045;-75
2022/06/09 04:07:11;;;;;;;1.02;0.52;;;13.60;89.80;;;;;;5013590;28;20083;-75
2022/06/09 04:09:37;;;;;;;1.48;0.50;;;13.70;89.80;;;;;;4995432;28;20050;-75
2022/06/09 04:12:04;;;;;;;0.43;0.40;;;13.70;89.80;;;;;;5013949;28;20080;-75
2022/06/09 04:14:29;;;;;;;1.27;0.60;;;13.80;89.80;;;;;;4994542;28;20049;-75
2022/06/09 04:16:55;;;;;;;0.75;0.60;;;13.80;89.70;;;;;;5013612;28;20030;-75
2022/06/09 04:19:22;;;;;;;0.95;0.52;;;13.80;89.70;;;;;;5013619;28;20490;-75
2022/06/09 04:21:49;;;;;;;1.05;0.52;;;13.90;89.70;;;;;;5013276;28;20045;-76
2022/06/09 04:24:15;;;;;;;0.50;0.30;;;13.90;89.60;;;;;;5013257;28;20478;-75
2022/06/09 04:26:41;;;;;;;1.55;0.70;;;14.00;89.60;;;;;;5013668;28;20108;-75
2022/06/09 04:29:13;;;;;;;0.50;0.40;;;14.00;89.50;;;;;;4995693;28;20064;-75
2022/06/09 04:31:40;;;;;;;;;;;14.10;89.50;;;;;;5014201;28;20049;-76
2022/06/09 04:34:06;;;;;;;1.00;0.70;;;14.10;89.30;;;;;;4995740;28;19960;-74
2022/06/09 04:36:32;;;;;;;0.82;0.45;;;14.10;89.20;;;;;;5013058;28;20493;-75
2022/06/09 04:38:58;;;;;;;1.13;0.50;;;14.10;89.20;;;;;;5013812;28;20500;-75
2022/06/09 04:41:24;;;;;;;0.70;0.50;;;14.10;89.20;;;;;;4994671;28;20062;-74
2022/06/09 04:43:50;;;;;;;0.82;0.57;;;14.20;89.20;;;;;;5013619;28;20038;-75
2022/06/09 04:46:19;;;;;;;1.13;0.40;;;14.20;89.20;;;;;;4995332;28;20057;-75
2022/06/09 04:48:44;;;;;;;1.17;0.50;;;14.30;89.30;;;;;;5013182;28;20509;-75
2022/06/09 04:51:16;;;;;;;0.68;0.43;;;14.30;89.30;;;;;;4995356;28;20077;-75
2022/06/09 04:53:43;;;;;;;1.42;0.50;;;14.30;89.20;;;;;;5012696;28;20085;-75
2022/06/09 04:56:09;;;;;;;1.17;0.65;;;14.30;89.30;;;;;;4995330;28;20486;-75
2022/06/09 04:58:38;;;;;;;0.70;0.60;;;14.40;89.40;;;;;;5013414;28;20034;-75
2022/06/09 05:01:06;;;;;;;1.35;0.63;;;14.30;89.30;;;;;;4993530;28;20044;-76
2022/06/09 05:03:33;;;;;;;1.58;0.77;;;14.40;89.40;;;;;;5012733;28;20100;-77
2022/06/09 05:05:59;;;;;;;0.90;0.60;;;14.50;89.40;;;;;;5012532;28;20041;-76
2022/06/09 05:08:25;;;;;;;1.27;0.60;;;14.50;90.00;;;;;;5012048;28;20490;-76
2022/06/09 05:10:51;;;;;;;0.65;0.50;;;14.60;89.40;;;;;;4995115;28;20069;-76
2022/06/09 05:13:17;;;;;;;0.75;0.70;;;14.60;89.30;;;;;;4994847;28;20049;-76
2022/06/09 05:15:49;;;;;;;2.00;0.90;;;14.60;89.30;;;;;;5012325;28;20046;-76
2022/06/09 05:18:17;;;;;;;1.20;0.63;;;14.60;90.00;;;;;;5012639;28;21309;-76
2022/06/09 05:20:43;;;;;;;0.60;0.60;;;14.60;89.30;;;;;;5012349;28;20038;-76
2022/06/09 05:23:09;;;;;;;1.67;0.63;;;14.70;89.30;;;;;;4993842;28;20101;-75
2022/06/09 05:25:34;;;;;;;1.50;0.55;;;14.70;89.40;;;;;;5013064;28;20393;-76
2022/06/09 05:28:00;;;;;;;1.20;0.50;;;14.70;89.40;;;;;;4994803;28;20054;-76
2022/06/09 05:30:26;;;;;;;0.73;0.50;;;14.70;89.40;;;;;;4993969;28;20050;-76
2022/06/09 05:32:53;;;;;;;1.08;0.70;;;14.70;89.40;;;;;;5012709;28;20474;-76
2022/06/09 05:35:20;;;;;;;1.50;0.50;;;14.70;89.50;;;;;;4988867;28;20065;-76
2022/06/09 05:45:47;;;;;;;1.10;0.77;;;15.00;89.50;;;;;;5012097;28;20049;-76
2022/06/09 05:48:13;;;;;;;1.10;0.70;;;15.10;89.30;;;;;;5012031;28;20168;-75
2022/06/09 05:50:39;;;;;;;1.10;0.50;;;15.10;89.10;;;;;;5012095;28;20042;-76
2022/06/09 05:53:05;;;;;;;1.60;0.70;;;15.30;89.00;;;;;;5011948;28;20056;-76
2022/06/09 05:55:31;;;;;;;0.68;0.63;;;15.40;88.80;;;;;;5011880;28;20037;-75
2022/06/09 05:57:57;;;;;;;0.60;0.57;;;15.40;89.10;;;;;;4994549;28;20033;-76
2022/06/09 06:00:23;;;;;;;1.05;0.50;;;15.40;88.40;;;;;;4994812;28;20045;-75
2022/06/09 06:02:49;;;;;;;0.43;0.40;;;15.50;88.50;;;;;;4994812;28;20205;-76
2022/06/09 06:07:58;;;;;;;0.45;0.45;;;15.50;88.30;;;;;;5011710;28;20049;-76
2022/06/09 06:10:24;;;;;;;1.23;0.50;;;15.60;88.30;;;;;;4994611;28;20041;-76
2022/06/09 06:12:49;;;;;;;0.50;0.47;;;15.60;88.20;;;;;;4994002;28;20060;-76
2022/06/09 06:15:15;;;;;;;0.30;0.30;;;15.70;88.30;;;;;;5011704;28;20105;-76
2022/06/09 06:17:41;;;;;;;1.13;0.40;;;15.70;88.20;;;;;;4992952;28;20090;-76
2022/06/09 06:20:07;;;;;;;1.38;0.43;;;15.80;88.10;;;;;;4978996;28;20052;-77
2022/06/09 06:22:33;;;;;;;2.15;0.50;;;15.90;88.00;;;;;;4997748;28;20044;-78
2022/06/09 06:24:59;;;;;;;1.25;0.50;;;16.00;87.90;;;;;;5015015;28;20460;-79
2022/06/09 06:27:26;;;;;;;0.82;0.50;;;16.10;87.70;;;;;;5013454;28;20111;-78
2022/06/09 06:29:52;;;;;;;0.47;0.38;;;16.20;87.40;;;;;;5015083;28;20052;-78
2022/06/09 06:32:18;;;;;;;0.57;0.40;;;16.30;87.00;;;;;;4996856;28;20042;-78
2022/06/09 06:34:44;;;;;;;1.00;0.43;;;16.20;87.10;;;;;;4981249;28;20520;-78
2022/06/09 06:37:09;;;;;;;1.05;0.40;;;16.30;87.20;;;;;;5015247;28;20060;-78
2022/06/09 06:39:35;;;;;;;0.82;0.50;;;16.40;87.10;;;;;;5015147;28;20169;-77
2022/06/09 06:42:01;;;;;;;0.93;0.43;;;16.50;86.90;;;;;;5015839;28;20037;-76
2022/06/09 06:44:26;;;;;;;1.13;0.52;;;16.70;86.60;;;;;;5015432;28;20430;-78
2022/06/09 06:46:52;;;;;;;0.65;0.40;;;16.80;86.40;;;;;;4996863;28;20046;-78
2022/06/09 06:49:18;;;;;;;0.52;0.50;;;17.00;86.30;;;;;;5015286;28;20040;-77
2022/06/09 07:02:30;;;;;;;0.47;0.45;;;17.50;85.10;;;;;;4803150;29;20103;-77
2022/06/09 07:05:30;;;;;;;0.40;0.40;;;17.70;84.90;;;;;;4790670;29;20046;-77
2022/06/09 07:08:31;;;;;;;0.90;0.50;;;17.90;84.50;;;;;;4803274;29;20055;-76
2022/06/09 07:11:39;;;;;;;0.75;0.50;;;18.10;84.30;;;;;;4778200;30;20047;-76
2022/06/09 07:39:41;;;;;;;0.40;0.40;;;19.00;82.80;;;;;;4964594;28;20108;-77
2022/06/09 07:57:57;;;;;;;0.70;0.40;;;18.90;83.40;;;;;;4784282;29;20054;-76
2022/06/09 08:12:07;;;;;;;0.43;0.43;;;19.10;83.40;;;;;;4782190;29;20547;-76
2022/06/09 08:19:19;;;;;;;0.40;0.40;;;19.60;82.00;;;;;;4640482;30;20054;-76
2022/06/09 08:22:33;;;;;;;0.82;0.43;;;19.90;81.80;;;;;;4627458;30;20055;-77
2022/06/09 08:32:33;;;;;;;1.17;0.52;;;20.30;81.30;;;;;;4694585;30;20412;-79
2022/06/09 08:42:50;;;;;;;2.80;0.80;;;20.80;80.40;;;;;;4720594;30;20063;-78
2022/06/09 08:45:33;;;;;;;0.90;0.70;;;20.80;80.30;;;;;;4714034;30;20140;-76
2022/06/09 08:55:47;;;;;;;0.85;0.40;;;20.70;80.60;;;;;;4634922;30;20089;-79
2022/06/09 08:58:23;;;;;;;0.45;0.45;;;20.70;80.30;;;;;;4655617;30;20542;-77
2022/06/09 09:00:57;;;;;;;0.73;0.50;;;20.70;80.10;;;;;;4663027;30;20112;-77
2022/06/09 09:03:28;;;;;;;1.17;0.40;;;20.40;80.30;;;;;;4677380;30;20116;-76
2022/06/09 09:06:04;;;;;;;0.30;0.30;;;20.30;80.50;;;;;;4694480;30;20119;-77
2022/06/09 09:08:29;;;;;;;0.30;0.30;;;20.50;80.80;;;;;;4736290;30;20070;-77
2022/06/09 09:11:19;;;;;;;0.47;0.40;;;20.60;80.00;;;;;;4714600;30;20541;-79
2022/06/09 09:14:01;;;;;;;0.43;0.40;;;20.60;79.60;;;;;;4731180;30;20071;-76
2022/06/09 09:16:43;;;;;;;0.40;0.40;;;20.50;79.50;;;;;;4731709;30;20639;-76
2022/06/09 09:20:04;;;;;;;0.65;0.40;;;20.40;79.70;;;;;;4769926;30;20036;-76
2022/06/09 09:22:48;;;;;;;0.68;0.35;;;20.30;80.00;;;;;;4824851;29;20069;-76
2022/06/09 09:28:52;;;;;;;0.60;0.60;;;20.20;80.40;;;;;;4931804;29;20047;-75
2022/06/09 09:45:57;;;;;;;0.68;0.47;;;20.50;79.30;;;;;;4765827;30;20147;-74
2022/06/09 09:48:32;;;;;;;0.82;0.45;;;20.80;78.90;;;;;;4766683;30;20118;-74
2022/06/09 09:51:03;;;;;;;0.60;0.60;;;20.90;78.40;;;;;;4766627;30;20060;-75
2022/06/09 09:53:50;;;;;;;0.90;0.68;;;21.10;78.10;;;;;;4752240;30;20089;-75
2022/06/09 09:56:37;;;;;;;0.50;0.50;;;21.30;77.80;;;;;;4766434;30;20044;-75
2022/06/09 09:59:21;;;;;;;0.60;0.55;;;21.40;77.50;;;;;;4766872;30;20066;-74
2022/06/09 10:10:19;;;;;;;1.35;0.70;;;22.10;76.30;;;;;;4857355;29;20041;-76
2022/06/09 10:12:45;;;;;;;0.98;0.43;;;22.00;76.60;;;;;;4988539;28;20112;-75
2022/06/09 10:15:18;;;;;;;0.63;0.63;;;21.80;77.10;;;;;;4994079;28;20073;-75
2022/06/09 10:18:03;;;;;;;0.40;0.40;;;21.90;77.10;;;;;;5011890;28;20134;-76
2022/06/09 10:20:43;;;;;;;0.40;0.40;;;21.80;77.00;;;;;;4954548;28;20043;-76
2022/06/09 10:23:26;;;;;;;0.73;0.60;;;21.60;77.30;;;;;;4970574;28;20043;-76
2022/06/09 10:26:06;;;;;;;0.40;0.40;;;21.20;78.00;;;;;;4971336;28;20039;-75
2022/06/09 10:28:40;;;;;;;0.63;0.60;;;21.00;78.80;;;;;;4951397;28;20112;-74
2022/06/09 10:31:32;;;;;;;1.60;0.47;;;20.70;79.30;;;;;;4950568;28;20066;-75
2022/06/09 10:34:22;;;;;;;0.60;0.43;;;20.50;80.00;;;;;;4950869;28;20051;-76
2022/06/09 10:36:57;;;;;;;0.63;0.60;;;20.30;80.40;;;;;;4948228;28;20140;-75
2022/06/09 10:39:46;;;;;;;1.40;0.70;;;20.20;80.70;;;;;;4950283;28;20023;-77
2022/06/09 10:42:25;;;;;;;3.13;0.70;;;20.10;80.60;;;;;;4951508;28;20058;-76
2022/06/09 10:45:15;;;;;;;1.73;0.60;;;20.30;80.70;;;;;;4966473;28;20110;-75
2022/06/09 10:57:21;;;;;;;1.13;0.65;;;20.40;79.00;;;;;;4995791;28;20070;-76
2022/06/09 10:59:55;;;;;;;0.65;0.50;;;20.70;78.90;;;;;;4977635;28;20048;-76
2022/06/09 11:06:19;;;;;;;0.75;0.40;;;21.20;77.20;;;;;;4911207;29;20066;-78
2022/06/09 11:09:26;;;;;;;1.02;0.70;;;21.50;76.10;;;;;;4879074;29;20063;-74
2022/06/09 11:12:16;;;;;;;2.80;0.70;;;21.40;75.60;;;;;;4861734;29;20041;-74
2022/06/09 11:14:56;;;;;;;1.48;0.68;;;21.40;75.70;;;;;;4847194;29;20141;-76
2022/06/09 11:17:36;;;;;;;1.38;0.60;;;21.30;75.40;;;;;;4832098;29;20478;-76
2022/06/09 11:20:27;;;;;;;0.60;0.43;;;21.00;75.60;;;;;;4811417;29;20045;-76
2022/06/09 11:23:12;;;;;;;1.77;0.60;;;20.80;75.90;;;;;;4809643;29;20070;-74
2022/06/09 11:26:01;;;;;;;1.33;0.50;;;20.60;76.40;;;;;;4810035;29;20045;-76
2022/06/09 11:28:41;;;;;;;0.95;0.50;;;20.70;76.40;;;;;;4841612;29;20074;-76
2022/06/09 11:31:25;;;;;;;0.57;0.40;;;21.00;75.80;;;;;;4843356;29;20038;-75
2022/06/09 11:34:26;;;;;;;0.77;0.50;;;21.00;74.90;;;;;;4842841;29;20319;-75
2022/06/09 11:37:21;;;;;;;0.63;0.57;;;20.90;74.60;;;;;;4872718;29;20446;-76
2022/06/09 11:40:14;;;;;;;0.55;0.40;;;20.80;74.80;;;;;;4942412;29;20038;-75
2022/06/09 11:42:54;;;;;;;0.65;0.55;;;20.70;75.10;;;;;;4924375;29;20055;-77
2022/06/09 11:45:29;;;;;;;0.40;0.40;;;20.70;75.30;;;;;;4937797;29;20475;-77
2022/06/09 11:47:57;;;;;;;0.55;0.40;;;20.80;74.80;;;;;;4937481;29;20035;-75
2022/06/09 11:50:32;;;;;;;1.05;0.50;;;20.90;74.30;;;;;;4953463;29;20047;-77
2022/06/09 11:53:00;;;;;;;0.40;0.35;;;21.00;73.80;;;;;;4937797;29;20039;-76
2022/06/09 11:58:41;;;;;;;0.75;0.40;;;21.10;72.90;;;;;;4990588;28;20069;-77
2022/06/09 12:01:41;;;;;;;0.30;0.30;;;21.00;72.60;;;;;;5013649;28;20036;-76
2022/06/09 12:04:38;;;;;;;0.70;0.50;;;21.10;72.80;;;;;;5011037;28;20504;-76
2022/06/09 12:07:40;;;;;;;0.93;0.60;;;21.00;73.00;;;;;;5016801;28;20030;-78
2022/06/09 12:10:40;;;;;;;0.40;0.30;;;20.90;73.00;;;;;;4997422;28;20096;-75
2022/06/09 12:13:23;;;;;;;0.70;0.40;;;21.00;73.10;;;;;;4982791;28;20494;-73
2022/06/09 12:15:56;;;;;;;0.70;0.40;;;21.20;72.50;;;;;;4996202;28;20034;-76
2022/06/09 12:18:32;;;;;;;1.38;0.50;;;21.30;72.30;;;;;;4979349;28;20060;-76
2022/06/09 12:21:05;;;;;;;1.90;0.50;;;21.40;71.80;;;;;;5013573;28;20086;-75
2022/06/09 12:23:37;;;;;;;1.80;0.57;;;21.50;71.40;;;;;;5013096;28;20034;-75
2022/06/09 12:26:26;;;;;;;1.73;0.90;;;21.50;70.90;;;;;;5013647;28;20125;-74
2022/06/09 12:29:21;;;;;;;0.85;0.57;;;21.30;70.30;;;;;;5013429;28;20041;-74
2022/06/09 12:32:27;;;;;;;0.40;0.40;;;21.20;70.40;;;;;;5011815;28;21191;-74
2022/06/09 12:34:55;;;;;;;1.60;0.70;;;21.20;70.90;;;;;;4997472;28;20034;-73
2022/06/09 12:37:32;;;;;;;0.95;0.50;;;21.20;70.60;;;;;;5012809;28;20038;-74
2022/06/09 12:40:06;;;;;;;2.00;0.60;;;21.20;70.70;;;;;;5013396;28;20117;-74
2022/06/09 12:42:46;;;;;;;0.85;0.40;;;21.30;70.40;;;;;;4996363;28;20074;-74
2022/06/09 12:45:19;;;;;;;0.55;0.40;;;21.50;70.10;;;;;;5012916;28;20033;-74
2022/06/09 12:47:56;;;;;;;1.10;0.40;;;21.70;69.60;;;;;;4995195;28;20057;-75
2022/06/09 12:51:13;;;;;;;0.30;0.30;;;21.90;69.20;;;;;;5012322;28;20097;-73
2022/06/09 12:56:44;;;;;;;1.50;0.50;;;21.80;68.70;;;;;;4931498;28;20490;-73
2022/06/09 12:59:25;;;;;;;1.02;0.57;;;21.80;68.90;;;;;;4956115;28;20058;-74
2022/06/09 13:01:55;;;;;;;1.05;0.50;;;21.50;69.20;;;;;;4971985;28;20046;-74
2022/06/09 13:04:22;;;;;;;1.67;0.50;;;21.30;69.50;;;;;;4971881;28;20041;-76
2022/06/09 13:06:48;;;;;;;0.40;0.40;;;21.40;69.70;;;;;;4971803;28;20050;-76
2022/06/09 13:09:22;;;;;;;0.57;0.52;;;21.40;69.70;;;;;;4971690;28;20134;-76
2022/06/09 13:14:33;;;;;;;0.50;0.50;;;21.60;68.70;;;;;;4956824;28;20075;-76
2022/06/09 13:17:07;;;;;;;1.13;0.73;;;21.70;68.60;;;;;;4939585;28;20071;-74
2022/06/09 13:19:34;;;;;;;1.52;0.50;;;21.70;68.20;;;;;;4955195;28;20122;-74
2022/06/09 13:22:05;;;;;;;1.77;0.60;;;21.50;68.10;;;;;;4939813;28;20122;-74
2022/06/09 13:24:36;;;;;;;0.65;0.40;;;21.30;68.20;;;;;;4989404;28;20133;-73
2022/06/09 13:27:12;;;;;;;0.55;0.35;;;21.20;68.70;;;;;;4978659;28;20030;-77
2022/06/09 13:30:01;;;;;;;0.70;0.45;;;21.10;69.00;;;;;;4970943;28;20049;-79
2022/06/09 13:32:40;;;;;;;1.77;0.70;;;20.90;69.30;;;;;;4955702;28;20550;-77
2022/06/09 13:35:36;;;;;;;1.05;0.60;;;21.00;69.30;;;;;;4929540;28;20061;-76
2022/06/09 13:38:31;;;;;;;0.80;0.52;;;21.10;68.90;;;;;;4969969;28;20078;-78
2022/06/09 13:41:02;;;;;;;0.93;0.50;;;21.30;68.40;;;;;;4946556;28;20134;-77
2022/06/09 13:43:31;;;;;;;;;;;21.30;68.10;;;;;;4946984;28;20035;-77
2022/06/09 13:46:16;;;;;;;0.85;0.60;;;21.40;68.10;;;;;;4964625;28;19906;-79
2022/06/09 13:48:56;;;;;;;2.22;0.60;;;21.20;68.00;;;;;;4923017;28;20046;-78
2022/06/09 13:51:28;;;;;;;1.17;0.68;;;21.20;68.40;;;;;;4962456;28;20027;-78
2022/06/09 13:54:14;;;;;;;1.08;0.68;;;21.20;68.30;;;;;;4946314;28;20535;-78
2022/06/09 13:56:41;;;;;;;1.67;0.68;;;21.30;68.10;;;;;;4964173;28;20082;-78
2022/06/09 13:59:06;;;;;;;0.98;0.40;;;21.40;67.70;;;;;;4969589;28;20035;-78
2022/06/09 14:01:33;;;;;;;0.45;0.45;;;21.50;67.40;;;;;;4968480;28;20074;-78
2022/06/09 14:03:59;;;;;;;1.50;0.60;;;21.40;67.10;;;;;;4946811;28;20050;-78
2022/06/09 14:06:26;;;;;;;0.75;0.50;;;21.40;67.30;;;;;;4960635;28;20067;-77
2022/06/09 14:08:55;;;;;;;0.60;0.40;;;21.40;67.30;;;;;;4959870;28;20046;-78
2022/06/09 14:11:27;;;;;;;0.40;0.40;;;21.40;67.30;;;;;;4986785;28;20030;-78
2022/06/09 14:13:55;;;;;;;0.43;0.40;;;21.40;67.10;;;;;;5018805;28;20482;-80
2022/06/09 14:16:25;;;;;;;1.15;0.50;;;21.40;67.10;;;;;;4992831;28;20050;-78
2022/06/09 14:18:51;;;;;;;1.40;0.53;;;21.40;67.20;;;;;;5015905;28;20112;-78
2022/06/09 14:21:17;;;;;;;1.02;0.57;;;21.50;67.10;;;;;;5017882;28;20033;-79
2022/06/09 14:23:43;;;;;;;1.33;0.60;;;21.60;66.60;;;;;;5015926;28;20042;-78
2022/06/09 14:26:20;;;;;;;0.75;0.40;;;21.60;66.40;;;;;;5013853;28;20034;-80
2022/06/09 14:28:48;;;;;;;0.55;0.38;;;21.50;66.60;;;;;;4964346;28;20389;-79
2022/06/09 14:31:15;;;;;;;1.13;0.50;;;21.60;66.70;;;;;;4995100;28;21228;-77
2022/06/09 14:33:42;;;;;;;0.50;0.43;;;21.60;66.50;;;;;;4980570;28;20028;-79
2022/06/09 14:36:11;;;;;;;1.48;0.60;;;21.70;66.30;;;;;;4992337;28;20034;-78
2022/06/09 14:38:37;;;;;;;1.13;0.32;;;21.70;66.30;;;;;;5015051;28;20034;-79
2022/06/09 14:41:04;;;;;;;1.25;0.50;;;21.70;66.20;;;;;;4996593;28;20053;-78
2022/06/09 14:43:30;;;;;;;2.00;0.43;;;21.60;66.20;;;;;;5000403;28;20081;-78
2022/06/09 14:45:58;;;;;;;1.25;0.70;;;21.70;66.30;;;;;;5016419;28;20029;-77
2022/06/09 14:48:26;;;;;;;1.30;0.60;;;21.70;66.30;;;;;;4997750;28;20116;-77
2022/06/09 14:50:53;;;;;;;1.08;0.40;;;21.70;66.20;;;;;;5015588;28;20048;-76
2022/06/09 14:53:20;;;;;;;0.63;0.50;;;21.80;66.00;;;;;;5014826;28;20057;-78
2022/06/09 14:55:47;;;;;;;0.82;0.50;;;21.90;65.80;;;;;;5002059;28;20493;-77
2022/06/09 14:58:16;;;;;;;1.08;0.60;;;22.00;65.50;;;;;;5020889;28;20037;-76
2022/06/09 15:00:42;;;;;;;1.10;0.65;;;22.00;65.10;;;;;;5018388;28;20107;-78
2022/06/09 15:03:09;;;;;;;1.77;0.93;;;22.10;65.30;;;;;;5003518;28;20041;-77
2022/06/09 15:05:34;;;;;;;1.33;0.55;;;22.10;65.30;;;;;;5016839;28;20121;-78
2022/06/09 15:08:01;;;;;;;1.40;0.70;;;22.00;65.20;;;;;;5016352;28;20037;-77
2022/06/09 15:10:32;;;;;;;1.90;0.50;;;22.00;65.30;;;;;;4997578;28;20038;-79
2022/06/09 15:12:58;;;;;;;0.65;0.40;;;21.90;65.30;;;;;;5014808;28;20125;-77
2022/06/09 15:15:24;;;;;;;0.38;0.38;;;22.00;65.30;;;;;;5017710;28;20034;-77
2022/06/09 15:17:50;;;;;;;1.33;0.60;;;22.10;65.10;;;;;;5018689;28;20426;-77
2022/06/09 15:20:20;;;;;;;1.05;0.50;;;22.00;65.00;;;;;;5002562;28;20044;-77
2022/06/09 15:22:46;;;;;;;0.40;0.40;;;22.10;65.10;;;;;;5015061;28;20030;-77
2022/06/09 15:25:13;;;;;;;1.92;0.60;;;22.00;65.00;;;;;;4996546;28;20362;-76
2022/06/09 15:27:40;;;;;;;0.93;0.52;;;22.10;64.90;;;;;;5014904;28;20030;-76
2022/06/09 15:30:08;;;;;;;0.88;0.50;;;22.10;64.90;;;;;;5019236;28;20125;-76
2022/06/09 15:32:34;;;;;;;0.47;0.30;;;22.10;64.70;;;;;;5016940;28;20092;-77
2022/06/09 15:35:00;;;;;;;1.08;0.40;;;22.10;64.70;;;;;;5017685;28;20042;-77
2022/06/09 15:37:25;;;;;;;1.17;0.50;;;22.20;64.50;;;;;;5015845;28;20033;-76
2022/06/09 15:39:51;;;;;;;1.30;0.60;;;22.20;64.20;;;;;;5015217;28;20030;-76
2022/06/09 15:42:17;;;;;;;1.08;0.43;;;22.20;64.10;;;;;;5015294;28;20061;-77
2022/06/09 15:44:43;;;;;;;0.30;0.30;;;22.20;64.10;;;;;;5016214;28;20032;-76